1st December 2019 | Otago, New Zealand

The Pioneer fuelled by Nutri-Grain (2019)

Stage 3 - Alexandra to Bannockburn Teams

Pos Team Name Team Time Points Category (Pos)
1 (#128) ONYA BIKE NORTH OTAGO 02:21:57 3 Open Men (1)
2 (#110) GIANT AUSTRALIA OFF-ROAD TEAM 02:27:43 7 Open Men (2)
3 (#148) WINGER HAMILTON 02:31:19 11 Open Men (3)
4 (#151) MARATHONMTB.COM 02:33:12 15 Open Men (4)
5 (#106) CYCLE WORLD RACING 02:35:18 21 Open Men (5)
6 (#126) MCMILLAN CIVIL 02:35:23 25 Open Men (6)
7 (#119) MAAP SHIMANO 02:36:44 29 Open Men (7)
8 (#108) CYCLIST MAGAZINE 02:38:25 35 Open Men (8)
9 (#133) SPECIALISED STRUCTURES 02:38:26 35 Open Men (9)
10 (#333) SRAM MTOSS 02:38:30 41 Mixed (1)
11 (#121) MORTGAGE ME NZ CYCLING PROJECT 02:40:41 45 Open Men (10)
12 (#336) TEAM JOJO 02:41:24 49 Mixed (2)
13 (#429) OPTIMAL PERFORMANCE 02:41:25 53 Masters Men (1)
14 (#136) GREENMONKEY 02:42:02 57 Open Men (11)
15 (#410) CYCLE OBSESSION 02:44:32 62 Masters Men (2)
16 (#440) OFF THE CHAIN 02:44:37 64 Masters Men (3)
17 (#102) BLUBLOKES 02:49:38 69 Open Men (12)
18 (#323) SHIMANO PUSHYS CANNONDALE 02:50:05 73 Mixed (3)
19 (#134) SQUAREONE PHYSIO 02:50:59 77 Open Men (13)
20 (#412) CYCLINGTIPS.COM 02:51:14 81 Masters Men (4)
21 (#413) DAIKIN THERMAL SOLUTIONS 02:52:23 85 Masters Men (5)
22 (#630) TERREACTIVE IT SECURITY 02:52:59 89 Grand Masters Men (1)
23 (#203) STONEWOOD HOMES 02:54:03 93 Open Women (1)
24 (#326) TEAM NEW WORLD-PIVOT 02:54:39 97 Mixed (4)
25 (#105) CIRCUIT ASPHALT 02:56:04 101 Open Men (14)
26 (#137) TEAM ELEVATE 02:56:17 105 Open Men (15)
27 (#118) LES MORREAUX 02:56:54 109 Open Men (16)
28 (#130) PURE SPORTS NUTRITION 02:56:58 113 Open Men (17)
29 (#638) VELO WORKSHOP 02:56:59 117 Grand Masters Men (2)
30 (#633) THE HUB CYCLE CENTRE - RUNNING OUT OF SUMMERS 02:57:24 121 Grand Masters Men (3)
31 (#436) SHOW NO WEAKNESS 02:58:16 125 Masters Men (6)
32 (#444) TEAM SMIDDY 02:59:39 129 Masters Men (7)
33 (#437) SILVERSKYCYCLE 03:00:00 133 Masters Men (8)
34 (#411) STICKY BOTTLE 03:00:04 137 Masters Men (9)
35 (#608) CYCLEWAYS 03:00:05 141 Grand Masters Men (4)
36 (#124) NEW WORLD ST MARTINS 03:00:30 145 Open Men (18)
37 (#127) ONE HIT WONDERS 03:00:32 149 Open Men (19)
38 (#116) LANKY N RANKY 03:02:03 153 Open Men (20)
39 (#335) GREENMONKEY/PIVOT CYCLES 03:02:57 157 Mixed (5)
40 (#620) RIDETECHNICS 03:04:53 163 Grand Masters Men (5)
41 (#434) SHAUN & MATT - AKA SHAT 03:05:48 167 Masters Men (10)
42 (#317) MTBVL ADVENTURES 03:06:34 171 Mixed (6)
43 (#149) THE PIONEERS 03:09:55 175 Open Men (21)
44 (#139) TEAM VELO-REICHMUTH.CH 03:10:09 179 Open Men (22)
45 (#101) FLEET CYCLES 03:10:21 183 Open Men (23)
46 (#141) TEDS & FLASH 03:11:54 187 Open Men (24)
47 (#428) OLD BOYS OUT OF CONTROL 03:13:10 191 Masters Men (11)
48 (#452) VEGAS BOYS 03:13:14 195 Masters Men (12)
49 (#202) NEW WORLD ST MARTINS WOMEN 03:16:18 201 Open Women (2)
50 (#123) NBRCC 03:17:15 205 Open Men (25)
51 (#305) BIKETO-YUXI TEAM 03:17:16 209 Mixed (7)
52 (#111) GOOI MIELIES 03:17:38 213 Open Men (26)
53 (#449) THE VIKINGS 03:18:15 217 Masters Men (13)
54 (#107) CYCLETIME HAMILTON 03:18:50 221 Open Men (27)
55 (#422) KEA - EAGLE 03:19:13 225 Masters Men (14)
56 (#424) MEOGP RACING TEAM 03:19:22 229 Masters Men (15)
57 (#454) WAZZA DUO 03:20:02 233 Masters Men (16)
58 (#201) TIKI WINE & VINEYARDS 03:21:25 237 Open Women (3)
59 (#405) BLACKYARD RACING - STRAYA 03:21:33 241 Masters Men (17)
60 (#143) THE HANDLEBAR DADS - MOVEMBER NZ 03:21:58 245 Open Men (28)
61 (#601) 1E SIBA MTB TEAM 03:22:11 249 Grand Masters Men (6)
62 (#310) EQUIPE IRIS-BOB CYCLO 03:23:39 253 Mixed (8)
63 (#618) RANGI ROCKETS 03:23:42 257 Grand Masters Men (7)
64 (#320) REMARKABLE PHYSIOS 03:23:48 261 Mixed (9)
65 (#430) OUT OF OFFICE 03:23:55 265 Masters Men (18)
66 (#104) CALCONASSOS IBIZA 2 03:24:44 269 Open Men (29)
67 (#147) WRBIKES 03:25:51 273 Open Men (30)
68 (#146) TWO WATTS 03:27:04 277 Open Men (31)
69 (#138) TEAM PINNACLE 03:28:31 281 Open Men (32)
70 (#150) TEAM GREFIN 03:29:18 285 Open Men (33)
71 (#314) LIV AND JOE 03:29:59 289 Mixed (10)
72 (#607) CRY N' FEAR 03:30:36 293 Grand Masters Men (8)
73 (#419) ICE 03:30:40 297 Masters Men (19)
74 (#641) TWO OLD FOR THIS MATE 03:31:36 303 Grand Masters Men (9)
75 (#640) LES CROQUES MONSIEURS 03:31:37 307 Grand Masters Men (10)
76 (#503) EARNSCLEUGH EXPRESS 03:35:21 313 Masters Women (1)
77 (#114) KIESER AUSTRALIA 03:36:07 317 Open Men (34)
78 (#443) TEAM RACK 'N' STACK 03:36:30 325 Masters Men (20)
79 (#621) SEEDED WHEELS 03:36:35 329 Grand Masters Men (11)
80 (#637) TWO SOUTHERN MEN 03:36:48 333 Grand Masters Men (12)
81 (#313) KISIELS@50 03:39:03 337 Mixed (11)
82 (#507) OUTLAW SISTERS 03:39:36 343 Masters Women (2)
83 (#301) AKSA TEAM 03:39:54 347 Mixed (12)
84 (#315) LYNX REAL ESTATE 03:40:23 351 Mixed (13)
85 (#450) THE WOLFPACK 03:41:13 355 Masters Men (21)
86 (#302) ALREADY KNOW BETTER! 03:41:45 361 Mixed (14)
87 (#328) THE FREE WHEELERS 03:41:49 365 Mixed (15)
88 (#407) CALCONASSOS IBIZA 3 03:42:39 371 Masters Men (22)
89 (#316) MOUNTAIN SNAILS 03:44:13 375 Mixed (16)
90 (#140) TEAM VICTORY VETS 03:46:15 379 Open Men (35)
91 (#433) RPM 03:48:02 383 Masters Men (23)
92 (#603) 2DEGREES 03:48:09 387 Grand Masters Men (13)
93 (#125) NOT HERE TO F**K SPIDERS 03:48:33 391 Open Men (36)
94 (#426) NEW WORLD KUMEU 03:49:04 395 Masters Men (24)
95 (#318) PADDY & CO 03:49:44 399 Mixed (17)
96 (#609) DEFEND FIRE PROTECTION 03:49:51 403 Mixed (18)
97 (#446) THE 2 AMIGOS 03:50:36 407 Masters Men (25)
98 (#508) TEAM CYCLEWAYS 03:50:48 411 Masters Women (3)
99 (#135) TARANAKI HARDTAILS 03:50:52 415 Open Men (37)
100 (#447) THE BENDS 03:51:14 419 Masters Men (26)
101 (#451) TWO WEAK LINKS 03:51:52 423 Masters Men (27)
102 (#409) CALSONASSOS IBIZA 4 03:52:47 429 Masters Men (28)
103 (#321) SERPANTIN 03:54:04 433 Mixed (19)
104 (#420) INOSYM 03:58:51 439 Masters Men (29)
105 (#113) KELLYS CAFE & BAR 03:58:52 443 Open Men (38)
106 (#612) EPICURE 03:59:26 447 Grand Masters Men (14)
107 (#625) TEAM BIG RIDE 04:00:39 453 Grand Masters Men (15)
108 (#406) BOTH SIDES OF THE DITCH 04:01:11 457 Masters Men (30)
109 (#122) GALILEO RISK 04:02:54 461 Open Men (39)
110 (#502) DEFEND FIRE PROTECTION GIRLS ON FIRE 04:03:41 465 Masters Women (4)
111 (#330) CYCLE OBSESSION - MIXED 04:07:03 469 Mixed (20)
112 (#402) 4 STRONG LEGS 04:07:09 473 Masters Men (31)
113 (#445) TERRA FIRMA SKODA 04:07:38 477 Masters Men (32)
114 (#438) SINOGULF 04:07:57 481 Masters Men (33)
115 (#306) BLACKYARD RACING - SI 04:08:22 485 Mixed (21)
116 (#604) 86 400 04:09:32 489 Grand Masters Men (16)
117 (#129) PROJECT THREE SIXTY LIMITED 04:09:53 493 Open Men (40)
118 (#303) AN EPIC COMBO 04:10:35 497 Mixed (22)
119 (#456) ZOOMEN 04:11:51 501 Masters Men (34)
120 (#401) 2 BROKE BLOKES 04:11:53 507 Masters Men (35)
121 (#408) CALSONASSOS IBIZA 1 04:11:55 511 Masters Men (36)
122 (#319) RED ALERT 04:13:48 523 Mixed (23)
123 (#145) THE OTHER GUYS 04:14:28 527 Open Men (41)
124 (#505) I SHOP NEW WORLD 04:14:32 531 Masters Women (5)
125 (#629) TEAM: NUTRI-GRAIN 04:14:39 535 Grand Masters Men (17)
126 (#623) SO FAR BUT SO CLOSE 04:15:10 539 Grand Masters Men (18)
127 (#622) SMILES FOR THE PACIFIC 04:15:45 543 Grand Masters Men (19)
128 (#117) LEGEND CHX 04:16:07 547 Open Men (42)
129 (#639) WELL VENTECH 04:17:34 555 Grand Masters Men (20)
130 (#626) TEAM DNR 04:17:34 559 Grand Masters Men (21)
131 (#329) THE WHEELS 04:19:02 563 Mixed (24)
132 (#606) AXIS HOUSE CYCLE 4 CANSA 04:19:05 567 Grand Masters Men (22)
133 (#417) HILLBILLYS 04:20:54 571 Masters Men (37)
134 (#628) TEAM X 04:22:12 575 Grand Masters Men (23)
135 (#416) GLOBALID 04:24:18 579 Masters Men (38)
136 (#304) JACQUES & GEORGIA 04:25:27 583 Mixed (25)
137 (#441) TEAM DANÆS AHON 04:26:00 587 Masters Men (39)
138 (#605) AGAINST ALL ODDS 04:26:26 591 Grand Masters Men (24)
139 (#602) 2 AUSSIE PADDLERS 04:28:33 595 Grand Masters Men (25)
140 (#131) RATHOLE RACING 04:34:01 599 Open Men (43)
141 (#325) TEAM EDGAR 04:34:34 603 Mixed (26)
142 (#501) CABLE LOGGING GERALDINE NZ 04:35:59 607 Masters Women (6)
143 (#635) TRYING AGAIN 04:44:49 611 Grand Masters Men (26)
144 (#423) LUP & HONG 04:45:26 619 Masters Men (40)
145 (#324) SUNKONGS 04:45:37 623 Mixed (27)
146 (#455) WINE DINE FINISH LINE 04:47:28 627 Masters Men (41)
147 (#624) START SLOW 04:48:03 631 Grand Masters Men (27)
148 (#627) TEAM MAMMOTH 04:50:04 535 Grand Masters Men (28)
149 (#617) OH REALLY 04:50:58 637 Grand Masters Men (29)
150 (#308) COLORADO CRUISERS 04:52:31 643 Mixed (28)
151 (#610) DEUSA 04:53:20 647 Grand Masters Men (30)
152 (#307) BLACKYARD RACING NI 04:54:36 655 Mixed (29)
153 (#332) WESTRA-CHOO 05:00:30 661 Mixed (30)
- (#453) WALTER AND STATLER Masters Men
- (#103) BLUE CYCLES Open Men
- (#414) DUSTYDAZE WHANGAREI Masters Men
- (#115) LA PLATA PEDALERS Open Men
- (#504) GREG PARRÆS GIRL TORQUE Masters Women
- (#418) I CLIMB WELL FOR MY WEIGHT Masters Men
- (#615) JAM Grand Masters Men
- (#613) GIORGI EXCLUSIVE HOMES Grand Masters Men
- (#614) GIVE IT HORNS Grand Masters Men
- (#311) FASTLANE 2 Mixed
- (#312) FENTON Mixed
- (#415) FIZO CYCLING Masters Men
- (#427) OAMARU HONDA Masters Men
- (#506) NORTH TO SOUTH Masters Women
- (#439) SYED & JUAN MTB TEAM Masters Men
- (#435) SHIMANO Masters Men
- (#432) RIVET RACING Masters Men
- (#327) TEAM PHENOMENAL HOPE Mixed
- (#442) TEAM KT-26 Masters Men
- (#634) THE WHIPPETS Grand Masters Men
- (#144) THE HIPPY & THE GYPPY Open Men
- (#632) THE BEAVERTOWN BOYS Grand Masters Men
- (#142) THAT'S THE RHYTHM Open Men